Time;durP1;ratioP1;P1;durP2;ratioP2;P2;SDS_P1;SDS_P2;PMS_P1;PMS_P2;Temp;Humidity;BMP_temperature;BMP_pressure;BME280_temperature;BME280_humidity;BME280_pressure;Samples;Min_cycle;Max_cycle;Signal;HPM_P1;HPM_P2
2024/01/29 00:01:18;;;;;;;4.93;2.50;;;;;;;2.81;100.00;102312.06;5032378;28;20120;-66
2024/01/29 00:03:45;;;;;;;4.57;2.42;;;;;;;2.71;100.00;102311.91;5031924;28;20120;-65
2024/01/29 00:06:10;;;;;;;4.07;2.33;;;;;;;2.71;100.00;102329.78;5032468;28;20095;-64
2024/01/29 00:08:36;;;;;;;4.22;2.58;;;;;;;2.63;100.00;102328.09;5032309;28;20029;-65
2024/01/29 00:11:01;;;;;;;4.38;2.42;;;;;;;2.55;100.00;102328.22;5032044;28;20025;-65
2024/01/29 00:13:27;;;;;;;5.55;3.10;;;;;;;2.33;100.00;102302.28;5032708;28;20025;-66
2024/01/29 00:15:53;;;;;;;6.18;2.70;;;;;;;2.36;100.00;102325.50;5031708;28;20040;-66
2024/01/29 00:18:19;;;;;;;6.60;2.88;;;;;;;2.24;100.00;102316.63;5032044;28;20037;-66
2024/01/29 00:20:44;;;;;;;5.40;2.63;;;;;;;2.26;100.00;102331.31;5029870;28;20042;-67
2024/01/29 00:23:10;;;;;;;5.50;2.63;;;;;;;2.10;100.00;102310.16;5031883;28;20528;-66
2024/01/29 00:25:35;;;;;;;5.60;2.95;;;;;;;1.93;100.00;102328.81;5032052;28;20037;-65
2024/01/29 00:28:01;;;;;;;5.05;2.67;;;;;;;1.71;100.00;102306.28;5031957;28;20183;-67
2024/01/29 00:30:27;;;;;;;5.03;2.75;;;;;;;1.74;100.00;102329.47;5030850;28;20037;-67
2024/01/29 00:32:52;;;;;;;4.60;2.75;;;;;;;1.65;100.00;102335.31;5031844;28;20523;-67
2024/01/29 00:35:18;;;;;;;5.05;2.80;;;;;;;1.55;100.00;102330.91;5031790;28;20526;-66
2024/01/29 00:37:43;;;;;;;5.97;2.92;;;;;;;1.47;100.00;102319.94;5032085;28;20106;-65
2024/01/29 00:40:09;;;;;;;4.97;2.92;;;;;;;1.09;100.00;102256.69;5030315;28;20516;-66
2024/01/29 00:42:34;;;;;;;5.55;2.95;;;;;;;1.49;100.00;102335.38;5031528;28;20040;-67
2024/01/29 00:45:00;;;;;;;5.07;2.75;;;;;;;1.47;100.00;102332.66;5032524;28;20021;-65
2024/01/29 00:47:25;;;;;;;5.45;2.78;;;;;;;1.47;100.00;102331.75;5031425;28;20466;-68
2024/01/29 00:49:51;;;;;;;6.83;2.90;;;;;;;1.26;100.00;102308.44;5032315;28;20030;-68
2024/01/29 00:52:16;;;;;;;5.40;3.17;;;;;;;1.42;100.00;102343.97;5030046;28;20056;-67
2024/01/29 00:54:42;;;;;;;7.35;3.63;;;;;;;1.39;100.00;102347.13;5031264;28;20026;-67
2024/01/29 00:57:07;;;;;;;6.20;3.33;;;;;;;1.37;100.00;102345.16;5031724;28;20124;-66
2024/01/29 00:59:33;;;;;;;5.83;3.17;;;;;;;1.29;100.00;102340.16;5031370;28;20040;-70
2024/01/29 01:01:58;;;;;;;6.38;3.50;;;;;;;1.20;100.00;102338.31;5030971;28;20036;-66
2024/01/29 01:04:24;;;;;;;5.93;3.33;;;;;;;1.11;100.00;102313.72;5030805;28;20091;-69
2024/01/29 01:06:49;;;;;;;6.00;3.37;;;;;;;1.13;100.00;102322.41;5029870;28;20100;-66
2024/01/29 01:09:15;;;;;;;5.00;2.80;;;;;;;0.97;100.00;102311.34;5031183;28;20021;-66
2024/01/29 01:11:43;;;;;;;5.53;3.00;;;;;;;0.94;100.00;102311.94;5031350;28;20029;-68
2024/01/29 01:14:09;;;;;;;5.70;3.40;;;;;;;0.96;100.00;102322.28;5026998;28;20101;-70
2024/01/29 01:16:34;;;;;;;6.60;3.40;;;;;;;0.96;100.00;102324.84;5029054;28;20080;-66
2024/01/29 01:19:00;;;;;;;10.53;4.43;;;;;;;0.92;100.00;102321.06;5030476;28;20040;-65
2024/01/29 01:21:25;;;;;;;9.73;3.67;;;;;;;1.06;100.00;102329.22;5031169;28;20113;-67
2024/01/29 01:23:51;;;;;;;9.20;3.73;;;;;;;1.00;100.00;102319.31;5031024;28;20030;-68
2024/01/29 01:26:17;;;;;;;15.87;4.93;;;;;;;1.04;100.00;102336.69;5031189;28;20026;-67
2024/01/29 01:28:43;;;;;;;46.88;11.38;;;;;;;1.12;100.00;102338.41;5028793;28;20484;-67
2024/01/29 01:31:08;;;;;;;18.00;5.10;;;;;;;1.17;100.00;102326.16;5030972;28;20034;-68
2024/01/29 01:33:33;;;;;;;7.22;2.92;;;;;;;1.37;100.00;102337.53;5030458;28;20036;-68
2024/01/29 01:35:59;;;;;;;8.32;3.65;;;;;;;1.49;100.00;102345.53;5030535;28;20022;-67
2024/01/29 01:38:24;;;;;;;6.00;2.95;;;;;;;1.54;100.00;102340.16;5030360;28;20041;-68
2024/01/29 01:40:50;;;;;;;4.80;2.45;;;;;;;1.19;100.00;102266.16;5030756;28;20494;-72
2024/01/29 01:43:21;;;;;;;4.75;2.90;;;;;;;1.59;100.00;102322.84;5030800;28;20034;-70
2024/01/29 01:46:04;;;;;;;4.45;2.80;;;;;;;1.63;100.00;102342.75;5030902;28;20033;-71
2024/01/29 01:48:36;;;;;;;6.20;2.92;;;;;;;1.16;100.00;102296.41;5030152;28;20029;-69
2024/01/29 01:51:03;;;;;;;6.18;3.05;;;;;;;1.41;100.00;102353.28;5030406;28;20041;-67
2024/01/29 01:53:34;;;;;;;5.32;3.08;;;;;;;1.56;100.00;102363.25;5029689;28;20503;-68
2024/01/29 01:56:00;;;;;;;4.35;2.72;;;;;;;1.48;100.00;102361.56;5030765;28;20029;-68
2024/01/29 01:58:28;;;;;;;4.57;2.70;;;;;;;1.22;100.00;102367.34;5030058;28;20048;-67
2024/01/29 02:00:58;;;;;;;4.93;2.95;;;;;;;0.80;100.00;102357.91;5029170;28;20032;-70
2024/01/29 02:03:25;;;;;;;7.07;3.27;;;;;;;0.50;100.00;102370.75;5030832;28;20033;-67
2024/01/29 02:05:51;;;;;;;8.20;3.93;;;;;;;-0.23;100.00;102256.25;5030015;28;20034;-69
2024/01/29 02:08:17;;;;;;;8.40;3.60;;;;;;;0.12;100.00;102332.81;5030683;28;20091;-66
2024/01/29 02:10:43;;;;;;;6.80;3.90;;;;;;;0.13;100.00;102365.13;5029982;28;20411;-67
2024/01/29 02:13:14;;;;;;;7.33;3.90;;;;;;;0.06;100.00;102357.56;5030269;28;20099;-66
2024/01/29 02:15:41;;;;;;;6.63;4.03;;;;;;;-0.04;100.00;102360.72;5029886;28;20446;-68
2024/01/29 02:18:07;;;;;;;8.30;4.07;;;;;;;-0.33;100.00;102333.03;5029683;28;20032;-67
2024/01/29 02:20:34;;;;;;;6.47;3.30;;;;;;;-0.26;100.00;102358.34;5030057;28;20026;-68
2024/01/29 02:22:59;;;;;;;8.90;4.30;;;;;;;-0.47;100.00;102331.50;5029342;28;20033;-69
2024/01/29 02:25:25;;;;;;;7.43;3.60;;;;;;;-0.39;100.00;102351.00;5030182;28;20029;-65
2024/01/29 02:27:50;;;;;;;6.40;3.37;;;;;;;-0.42;100.00;102347.25;5030015;28;20064;-69
2024/01/29 02:30:16;;;;;;;5.87;3.30;;;;;;;-0.46;100.00;102342.53;5029800;28;20102;-70
2024/01/29 02:32:41;;;;;;;6.30;3.40;;;;;;;-0.46;100.00;102342.53;5027280;28;20181;-69
2024/01/29 02:35:07;;;;;;;6.07;3.23;;;;;;;-0.61;100.00;102316.38;5028627;28;20057;-69
2024/01/29 02:37:33;;;;;;;6.80;3.20;;;;;;;-0.36;100.00;102353.00;5028804;28;20140;-68
2024/01/29 02:39:59;;;;;;;5.93;3.17;;;;;;;-0.31;100.00;102354.41;5024205;28;20391;-69
2024/01/29 02:42:25;;;;;;;5.60;3.07;;;;;;;-0.28;100.00;102353.84;5027223;28;20037;-70
2024/01/29 02:44:51;;;;;;;5.90;3.17;;;;;;;-0.28;100.00;102369.06;5028586;28;20029;-69
2024/01/29 02:47:17;;;;;;;6.57;3.77;;;;;;;-0.21;100.00;102369.91;5029951;28;20029;-69
2024/01/29 02:49:46;;;;;;;5.97;3.07;;;;;;;-0.33;100.00;102381.25;5025227;28;20037;-70
2024/01/29 02:52:12;;;;;;;9.47;3.93;;;;;;;-0.26;100.00;102373.59;5029837;28;20512;-69
2024/01/29 02:54:37;;;;;;;5.07;2.97;;;;;;;-0.28;100.00;102377.56;5029498;28;20519;-69
2024/01/29 02:57:04;;;;;;;6.27;3.53;;;;;;;-0.38;100.00;102362.06;5029164;28;20033;-69
2024/01/29 02:59:30;;;;;;;5.43;3.30;;;;;;;-0.23;100.00;102375.56;5027612;28;20038;-70
2024/01/29 03:01:56;;;;;;;6.60;3.73;;;;;;;-0.11;100.00;102371.84;5029299;28;20060;-69
2024/01/29 03:04:22;;;;;;;7.67;3.63;;;;;;;-0.76;100.00;102224.25;5032928;28;20108;-69
2024/01/29 03:06:48;;;;;;;6.60;3.90;;;;;;;0.24;100.00;102366.31;5036450;28;20183;-68
2024/01/29 03:09:14;;;;;;;6.20;3.47;;;;;;;0.30;100.00;102374.59;5035245;28;20463;-69
2024/01/29 03:11:40;;;;;;;6.47;3.53;;;;;;;-0.26;100.00;102355.81;5034345;28;20049;-70
2024/01/29 03:14:06;;;;;;;6.27;3.20;;;;;;;-0.33;100.00;102360.94;5032744;28;20025;-68
2024/01/29 03:16:31;;;;;;;5.60;3.40;;;;;;;-0.14;100.00;102398.53;5036250;28;20439;-68
2024/01/29 03:18:57;;;;;;;6.57;3.70;;;;;;;-0.19;100.00;102400.53;5035694;28;20029;-66
2024/01/29 03:21:23;;;;;;;7.10;3.77;;;;;;;-0.53;100.00;102390.06;5036053;28;20029;-67
2024/01/29 03:23:48;;;;;;;6.70;4.20;;;;;;;-0.45;100.00;102408.66;5035128;28;20034;-71
2024/01/29 03:26:15;;;;;;;7.43;4.17;;;;;;;-0.48;100.00;102400.72;5035769;28;20127;-69
2024/01/29 03:28:40;;;;;;;8.53;4.73;;;;;;;-0.49;100.00;102388.78;5034600;28;20484;-70
2024/01/29 03:31:06;;;;;;;7.77;5.10;;;;;;;-0.42;100.00;102414.09;5035632;28;20032;-69
2024/01/29 03:33:31;;;;;;;7.77;4.67;;;;;;;-0.23;100.00;102424.69;5035463;28;20018;-68
2024/01/29 03:35:57;;;;;;;8.67;5.00;;;;;;;-0.29;100.00;102382.50;5036103;28;20476;-69
2024/01/29 03:38:23;;;;;;;7.80;5.07;;;;;;;-0.01;100.00;102416.94;5034617;28;20087;-70
2024/01/29 03:40:48;;;;;;;10.87;5.40;;;;;;;0.05;100.00;102404.00;5033291;28;20053;-69
2024/01/29 03:43:14;;;;;;;9.43;4.77;;;;;;;-0.14;100.00;102357.91;5035675;28;20033;-69
2024/01/29 03:45:39;;;;;;;7.87;4.40;;;;;;;-0.53;100.00;102307.97;5035108;28;20075;-69
2024/01/29 03:48:05;;;;;;;9.07;4.90;;;;;;;-0.21;100.00;102366.50;5035656;28;20109;-69
2024/01/29 03:50:31;;;;;;;6.60;3.87;;;;;;;-0.10;100.00;102393.97;5035291;28;20056;-69
2024/01/29 03:52:56;;;;;;;7.83;4.20;;;;;;;-0.01;100.00;102417.81;5034765;28;20088;-66
2024/01/29 03:55:22;;;;;;;8.80;4.87;;;;;;;0.17;100.00;102417.16;5036205;28;20053;-69
2024/01/29 03:57:48;;;;;;;8.33;4.40;;;;;;;0.28;100.00;102414.16;5034705;28;20029;-70
2024/01/29 04:00:18;;;;;;;7.97;4.30;;;;;;;-0.03;100.00;102353.25;5050554;28;20046;-72
2024/01/29 04:02:46;;;;;;;7.77;4.13;;;;;;;0.33;100.00;102405.41;5034963;28;20033;-69
2024/01/29 04:05:12;;;;;;;7.35;4.40;;;;;;;0.56;100.00;102432.41;5035038;28;20033;-69
2024/01/29 04:07:38;;;;;;;9.30;4.85;;;;;;;0.62;100.00;102443.25;5035757;28;20029;-69
2024/01/29 04:10:03;;;;;;;8.95;4.45;;;;;;;0.33;100.00;102435.88;5035223;28;20025;-69
2024/01/29 04:12:49;;;;;;;7.53;4.10;;;;;;;-0.13;100.00;102448.56;5035387;28;20033;-70
2024/01/29 04:18:14;;;;;;;9.15;4.60;;;;;;;-0.37;100.00;102445.09;5131741;22;20053;-67
2024/01/29 04:20:39;;;;;;;11.63;4.10;;;;;;;-0.40;100.00;102445.66;5011997;28;20060;-68
2024/01/29 04:23:05;;;;;;;9.83;4.60;;;;;;;-0.63;100.00;102449.75;5008064;28;20029;-69
2024/01/29 04:25:30;;;;;;;12.63;6.40;;;;;;;-0.63;100.00;102450.66;5012639;28;20117;-68
2024/01/29 04:27:56;;;;;;;12.07;5.97;;;;;;;-0.85;100.00;102450.75;5012414;28;20029;-69
2024/01/29 04:30:21;;;;;;;12.83;4.87;;;;;;;-0.91;100.00;102460.19;5011561;28;20405;-69
2024/01/29 04:32:47;;;;;;;14.73;5.47;;;;;;;-1.02;100.00;102440.28;5011505;28;20037;-68
2024/01/29 04:35:13;;;;;;;13.10;6.23;;;;;;;-1.80;100.00;102311.44;5012717;28;20092;-68
2024/01/29 04:37:41;;;;;;;17.90;4.93;;;;;;;-0.97;100.00;102446.78;5011577;28;20036;-68
2024/01/29 04:40:07;;;;;;;7.63;4.17;;;;;;;-1.10;100.00;102426.72;5008376;28;20544;-68
2024/01/29 04:42:33;;;;;;;7.67;4.23;;;;;;;-0.93;100.00;102432.84;5011736;28;20468;-68
2024/01/29 04:44:58;;;;;;;7.70;4.27;;;;;;;-0.96;100.00;102429.94;5009467;28;20025;-69
2024/01/29 04:47:26;;;;;;;8.07;4.53;;;;;;;-0.92;100.00;102444.75;5006332;28;20034;-69
2024/01/29 04:49:51;;;;;;;7.47;4.10;;;;;;;-1.42;100.00;102368.16;5008476;28;20494;-70
2024/01/29 04:52:17;;;;;;;7.37;3.60;;;;;;;-0.91;100.00;102446.56;5007761;28;20042;-68
2024/01/29 04:54:42;;;;;;;12.57;4.37;;;;;;;-0.97;100.00;102441.72;5007843;28;20064;-69
2024/01/29 04:57:08;;;;;;;10.53;4.50;;;;;;;-1.08;100.00;102443.00;5011501;28;20041;-71
2024/01/29 04:59:33;;;;;;;9.20;4.30;;;;;;;-1.19;100.00;102440.88;5010862;28;20038;-69
2024/01/29 05:01:59;;;;;;;9.03;3.83;;;;;;;-1.42;100.00;102395.13;5011203;28;20113;-70
2024/01/29 05:04:24;;;;;;;8.57;4.47;;;;;;;-1.12;100.00;102434.88;5010351;28;20041;-70
2024/01/29 05:06:50;;;;;;;8.77;4.80;;;;;;;-1.05;100.00;102439.94;5006437;28;20482;-67
2024/01/29 05:09:17;;;;;;;10.97;4.60;;;;;;;-1.11;100.00;102429.06;5009823;28;20041;-69
2024/01/29 05:11:43;;;;;;;10.50;4.27;;;;;;;-1.04;100.00;102424.88;5007901;28;20025;-69
2024/01/29 05:14:08;;;;;;;7.90;4.27;;;;;;;-1.22;100.00;102384.75;4996071;28;20092;-69
2024/01/29 05:16:35;;;;;;;7.87;4.33;;;;;;;-0.83;100.00;102440.75;5011313;28;20429;-69
2024/01/29 05:19:01;;;;;;;7.90;3.93;;;;;;;-0.60;100.00;102450.97;5009333;28;20409;-70
2024/01/29 05:21:27;;;;;;;18.60;6.20;;;;;;;-0.39;100.00;102456.69;5009078;28;20045;-65
2024/01/29 05:23:53;;;;;;;6.53;4.10;;;;;;;-0.38;100.00;102451.78;5010759;28;20030;-69
2024/01/29 05:26:18;;;;;;;9.27;5.03;;;;;;;-0.18;100.00;102460.75;4998808;28;20518;-68
2024/01/29 05:28:44;;;;;;;8.30;4.63;;;;;;;-0.72;100.00;102355.75;5009996;28;20076;-67
2024/01/29 05:31:10;;;;;;;7.30;4.07;;;;;;;-0.02;100.00;102469.34;5010891;28;20042;-66
2024/01/29 05:33:36;;;;;;;8.03;3.87;;;;;;;-0.02;100.00;102451.56;5010423;28;20077;-69
2024/01/29 05:36:02;;;;;;;7.90;3.97;;;;;;;-0.48;100.00;102369.41;5010803;28;20536;-68
2024/01/29 05:38:27;;;;;;;8.07;4.40;;;;;;;-0.01;100.00;102443.22;5010745;28;20500;-68
2024/01/29 05:40:53;;;;;;;10.90;4.93;;;;;;;0.14;100.00;102469.41;5024784;28;20528;-68
2024/01/29 05:43:20;;;;;;;9.07;4.60;;;;;;;0.02;100.00;102462.06;4986341;28;20129;-69
2024/01/29 05:45:46;;;;;;;7.63;4.40;;;;;;;0.05;100.00;102453.16;5021049;28;20065;-70
2024/01/29 05:48:13;;;;;;;8.83;3.83;;;;;;;0.21;100.00;102478.59;5027401;28;20533;-67
2024/01/29 05:50:38;;;;;;;6.13;3.70;;;;;;;0.15;100.00;102478.84;5028522;28;20080;-67
2024/01/29 05:53:04;;;;;;;6.57;3.93;;;;;;;0.13;100.00;102474.31;5026213;28;20030;-67
2024/01/29 05:55:29;;;;;;;7.97;4.27;;;;;;;-0.08;100.00;102439.81;5023630;28;20428;-69
2024/01/29 05:57:55;;;;;;;8.70;4.60;;;;;;;0.19;100.00;102474.09;5026110;28;20043;-68
2024/01/29 06:00:21;;;;;;;9.17;4.43;;;;;;;0.24;100.00;102484.03;5027318;28;20042;-68
2024/01/29 06:02:48;;;;;;;10.20;4.60;;;;;;;0.25;100.00;102480.78;5010262;28;20567;-67
2024/01/29 06:05:15;;;;;;;7.20;3.93;;;;;;;-0.15;100.00;102404.34;5011366;28;20041;-68
2024/01/29 06:07:41;;;;;;;14.20;5.50;;;;;;;-0.08;100.00;102406.81;4994343;28;20567;-66
2024/01/29 06:10:08;;;;;;;8.43;4.63;;;;;;;0.53;100.00;102490.53;5028241;28;20577;-66
2024/01/29 06:12:34;;;;;;;9.10;4.30;;;;;;;0.66;100.00;102491.16;5013438;28;20034;-67
2024/01/29 06:14:59;;;;;;;7.17;4.40;;;;;;;0.48;100.00;102488.38;5010365;28;20033;-68
2024/01/29 06:17:25;;;;;;;8.67;4.70;;;;;;;0.39;100.00;102482.28;5010744;28;20105;-65
2024/01/29 06:19:50;;;;;;;9.93;5.90;;;;;;;0.62;100.00;102497.53;5004213;28;20041;-69
2024/01/29 06:22:16;;;;;;;9.40;5.77;;;;;;;0.73;100.00;102487.63;5008853;28;20135;-67
2024/01/29 06:24:42;;;;;;;13.73;6.07;;;;;;;0.76;100.00;102486.34;5009274;28;20057;-69
2024/01/29 06:27:09;;;;;;;10.73;5.68;;;;;;;0.83;100.00;102485.34;5008976;28;20120;-66
2024/01/29 06:29:34;;;;;;;11.43;6.67;;;;;;;0.92;100.00;102490.53;5004711;28;20039;-66
2024/01/29 06:32:01;;;;;;;7.57;4.30;;;;;;;1.03;100.00;102495.13;5010891;28;20037;-66
2024/01/29 06:34:26;;;;;;;7.25;4.10;;;;;;;1.10;100.00;102499.25;5010354;28;20038;-66
2024/01/29 06:36:53;;;;;;;7.45;4.78;;;;;;;1.18;100.00;102485.69;5009972;28;20516;-65
2024/01/29 06:39:20;;;;;;;8.82;5.07;;;;;;;1.29;100.00;102497.94;5009197;28;20505;-66
2024/01/29 06:41:45;;;;;;;8.57;4.80;;;;;;;1.36;100.00;102499.50;5010379;28;20029;-67
2024/01/29 06:44:11;;;;;;;8.93;4.57;;;;;;;1.49;100.00;102511.00;5009803;28;20034;-65
2024/01/29 06:46:36;;;;;;;8.30;5.00;;;;;;;1.41;100.00;102488.16;5010077;28;20034;-64
2024/01/29 06:49:02;;;;;;;8.75;4.93;;;;;;;1.63;100.00;102512.44;5010145;28;20109;-67
2024/01/29 06:51:28;;;;;;;9.27;4.63;;;;;;;1.58;100.00;102504.31;5009787;28;20489;-68
2024/01/29 06:53:53;;;;;;;10.07;4.72;;;;;;;1.65;100.00;102524.59;5010197;28;20567;-68
2024/01/29 06:56:19;;;;;;;8.43;5.28;;;;;;;1.60;100.00;102518.13;5009853;28;20053;-68
2024/01/29 06:58:45;;;;;;;9.82;5.22;;;;;;;1.48;100.00;102511.72;5010572;28;20034;-68
2024/01/29 07:01:10;;;;;;;12.15;5.82;;;;;;;1.06;100.00;102431.88;5009825;28;20073;-72
2024/01/29 07:03:36;;;;;;;12.60;6.40;;;;;;;1.66;100.00;102521.31;5007429;28;20080;-67
2024/01/29 07:06:02;;;;;;;11.45;6.05;;;;;;;1.77;100.00;102527.56;5010355;28;20040;-67
2024/01/29 07:08:27;;;;;;;11.38;5.93;;;;;;;1.91;100.00;102536.66;5009993;28;20490;-69
2024/01/29 07:10:53;;;;;;;16.55;5.43;;;;;;;1.65;100.00;102470.25;5009628;28;20072;-67
2024/01/29 07:13:18;;;;;;;9.50;4.72;;;;;;;2.02;100.00;102525.94;5010412;28;20436;-67
2024/01/29 07:15:44;;;;;;;10.13;4.70;;;;;;;2.04;100.00;102514.25;5008483;28;20026;-66
2024/01/29 07:18:10;;;;;;;10.50;4.57;;;;;;;2.21;100.00;102530.41;5009926;28;20458;-67
2024/01/29 07:20:40;;;;;;;8.82;4.80;;;;;;;2.30;100.00;102530.44;5009936;28;20034;-67
2024/01/29 07:23:07;;;;;;;8.98;4.65;;;;;;;2.41;100.00;102528.25;5004631;28;20038;-67
2024/01/29 07:25:38;;;;;;;10.30;4.93;;;;;;;2.35;100.00;102514.00;5010213;28;20134;-67
2024/01/29 07:28:05;;;;;;;7.85;4.70;;;;;;;2.48;100.00;102539.09;5009456;28;20486;-66
2024/01/29 07:30:31;;;;;;;8.50;4.93;;;;;;;2.05;100.00;102467.63;5009524;28;20460;-68
2024/01/29 07:32:58;;;;;;;12.23;7.35;;;;;;;2.56;100.00;102545.88;5009553;28;20037;-67
2024/01/29 07:35:23;;;;;;;12.93;5.15;;;;;;;2.69;100.00;102546.41;5009843;28;20061;-66
2024/01/29 07:37:49;;;;;;;11.63;5.45;;;;;;;2.64;100.00;102542.47;5009223;28;20062;-67
2024/01/29 07:40:15;;;;;;;9.50;5.03;;;;;;;2.75;100.00;102554.69;5009815;28;20062;-67
2024/01/29 07:42:40;;;;;;;11.88;5.22;;;;;;;2.62;100.00;102510.81;5010057;28;20077;-68
2024/01/29 07:45:06;;;;;;;8.35;4.90;;;;;;;2.60;100.00;102540.34;5008027;28;20069;-66
2024/01/29 07:47:32;;;;;;;17.27;6.38;;;;;;;2.71;100.00;102547.44;5009590;28;20088;-67
2024/01/29 07:49:57;;;;;;;13.07;5.38;;;;;;;2.80;100.00;102551.69;5007503;28;20089;-66
2024/01/29 07:52:23;;;;;;;12.07;5.20;;;;;;;2.90;100.00;102554.41;5013035;28;20421;-71
2024/01/29 07:54:48;;;;;;;9.65;4.97;;;;;;;2.60;100.00;102481.69;5012079;28;20152;-70
2024/01/29 07:57:14;;;;;;;12.40;5.68;;;;;;;2.98;100.00;102529.66;5008031;28;20030;-69
2024/01/29 07:59:43;;;;;;;10.23;4.65;;;;;;;2.45;99.80;102464.84;5011654;28;20033;-66
2024/01/29 08:02:09;;;;;;;9.43;4.25;;;;;;;2.99;100.00;102549.34;5012613;28;20073;-66
2024/01/29 08:04:34;;;;;;;9.82;3.63;;;;;;;2.59;100.00;102469.69;5010252;28;20073;-67
2024/01/29 08:07:01;;;;;;;7.70;3.47;;;;;;;3.17;98.43;102558.84;5006189;28;20030;-68
2024/01/29 08:09:26;;;;;;;9.13;4.30;;;;;;;3.18;98.08;102537.69;5005882;28;20033;-71
2024/01/29 08:11:52;;;;;;;5.13;2.78;;;;;;;2.99;96.13;102536.59;5012352;28;20045;-68
2024/01/29 08:14:17;;;;;;;5.68;3.20;;;;;;;3.13;96.26;102564.41;4993637;28;20073;-67
2024/01/29 08:16:43;;;;;;;5.35;2.80;;;;;;;3.21;95.45;102557.53;5011805;28;20129;-66
2024/01/29 08:19:09;;;;;;;5.80;2.70;;;;;;;3.08;94.58;102556.28;5011904;28;20038;-67
2024/01/29 08:21:35;;;;;;;5.45;3.55;;;;;;;3.23;95.74;102561.13;5011779;28;20164;-71
2024/01/29 08:24:02;;;;;;;5.20;2.97;;;;;;;3.15;94.14;102555.25;5012091;28;20096;-67
2024/01/29 08:26:28;;;;;;;6.25;3.33;;;;;;;3.09;94.87;102534.25;5012506;28;20034;-68
2024/01/29 08:28:54;;;;;;;4.68;2.65;;;;;;;2.99;93.04;102563.03;5011907;28;20120;-66
2024/01/29 08:31:19;;;;;;;8.43;3.40;;;;;;;2.81;94.10;102545.84;5012733;28;20065;-66
2024/01/29 08:33:45;;;;;;;4.82;2.97;;;;;;;2.59;93.91;102511.41;5011871;28;20515;-68
2024/01/29 08:36:10;;;;;;;6.20;2.88;;;;;;;2.88;94.84;102567.03;5011732;28;20501;-66
2024/01/29 08:38:36;;;;;;;5.10;2.63;;;;;;;2.90;94.17;102573.19;5012033;28;20033;-66
2024/01/29 08:41:02;;;;;;;5.32;3.03;;;;;;;3.03;94.49;102583.00;5012709;28;20038;-67
2024/01/29 08:43:27;;;;;;;5.00;2.70;;;;;;;3.20;95.69;102569.41;5011989;28;20413;-64
2024/01/29 08:45:52;;;;;;;7.82;2.97;;;;;;;3.39;93.34;102574.69;5011791;28;20500;-66
2024/01/29 08:48:18;;;;;;;5.72;2.78;;;;;;;3.36;93.26;102560.69;5011586;28;20033;-64
2024/01/29 08:50:43;;;;;;;5.18;2.55;;;;;;;3.51;92.98;102574.09;5011968;28;20446;-67
2024/01/29 08:53:09;;;;;;;7.75;4.40;;;;;;;3.59;91.17;102577.41;5026678;28;20041;-66
2024/01/29 08:55:34;;;;;;;4.68;2.65;;;;;;;3.47;89.59;102587.31;4992453;28;20049;-65
2024/01/29 08:58:00;;;;;;;6.47;3.17;;;;;;;3.10;90.18;102528.34;5011234;28;20034;-65
2024/01/29 09:00:25;;;;;;;5.47;2.85;;;;;;;3.50;91.34;102597.81;5011105;28;20026;-67
2024/01/29 09:02:51;;;;;;;5.53;2.50;;;;;;;3.58;91.01;102591.84;5010851;28;20026;-65
2024/01/29 09:05:17;;;;;;;4.55;2.70;;;;;;;3.63;91.40;102579.53;5010687;28;20570;-66
2024/01/29 09:07:42;;;;;;;5.53;2.70;;;;;;;3.58;90.12;102585.81;5011199;28;20026;-67
2024/01/29 09:10:08;;;;;;;6.35;2.97;;;;;;;3.70;90.24;102581.91;5009879;28;20046;-67
2024/01/29 09:12:34;;;;;;;6.18;2.97;;;;;;;3.70;89.67;102575.19;5010848;28;20038;-65
2024/01/29 09:15:01;;;;;;;6.80;2.55;;;;;;;3.35;89.51;102492.50;5011186;28;20036;-66
2024/01/29 09:17:27;;;;;;;7.20;3.47;;;;;;;3.95;89.57;102569.00;5010513;28;20045;-65
2024/01/29 09:19:52;;;;;;;3.97;2.35;;;;;;;3.86;88.13;102526.47;5010846;28;20030;-65
2024/01/29 09:22:18;;;;;;;9.73;2.50;;;;;;;4.07;88.99;102564.19;5010506;28;20398;-64
2024/01/29 09:24:44;;;;;;;6.63;2.45;;;;;;;3.93;88.68;102563.75;5011878;28;20045;-65
2024/01/29 09:27:10;;;;;;;4.80;2.63;;;;;;;3.84;89.37;102521.97;5010602;28;20468;-65
2024/01/29 09:29:35;;;;;;;5.68;2.90;;;;;;;4.16;88.88;102570.19;5011086;28;20040;-65
2024/01/29 09:32:01;;;;;;;3.95;2.30;;;;;;;4.35;89.06;102566.09;5009369;28;20037;-66
2024/01/29 09:34:27;;;;;;;3.78;2.40;;;;;;;4.40;87.52;102556.31;5011205;28;20030;-66
2024/01/29 09:36:53;;;;;;;5.72;2.75;;;;;;;4.57;86.51;102550.22;5010777;28;20473;-65
2024/01/29 09:39:19;;;;;;;6.30;3.20;;;;;;;4.62;86.34;102550.66;5010488;28;20041;-67
2024/01/29 09:41:46;;;;;;;2.97;2.00;;;;;;;3.84;86.29;102412.13;5010380;28;20096;-65
2024/01/29 09:44:12;;;;;;;4.28;2.47;;;;;;;4.49;85.60;102549.50;5010566;28;20120;-66
2024/01/29 09:46:40;;;;;;;5.65;2.10;;;;;;;4.59;86.27;102532.50;5011148;28;20114;-69
2024/01/29 09:49:06;;;;;;;4.10;2.65;;;;;;;4.64;84.86;102531.25;5010264;28;20060;-66
2024/01/29 09:51:32;;;;;;;5.60;2.90;;;;;;;4.73;84.07;102531.22;5010706;28;20053;-65
2024/01/29 09:54:00;;;;;;;4.28;2.08;;;;;;;4.78;84.57;102532.56;5010540;28;20061;-66
2024/01/29 09:56:25;;;;;;;3.67;2.17;;;;;;;4.78;84.60;102530.00;5011315;28;20413;-68
2024/01/29 09:58:51;;;;;;;3.80;2.00;;;;;;;4.21;83.97;102441.13;5010512;28;20029;-67
2024/01/29 10:01:20;;;;;;;5.88;3.10;;;;;;;4.84;84.61;102533.13;5010167;28;20083;-67
2024/01/29 10:03:46;;;;;;;6.07;2.33;;;;;;;4.52;83.88;102464.47;5009672;28;20029;-66
2024/01/29 10:06:12;;;;;;;5.65;2.30;;;;;;;5.09;83.61;102537.97;5010488;28;20029;-68
2024/01/29 10:08:39;;;;;;;6.35;2.65;;;;;;;5.13;82.44;102533.25;5004425;28;20084;-66
2024/01/29 10:11:05;;;;;;;4.43;2.22;;;;;;;5.23;83.20;102532.44;5009710;28;20476;-70
2024/01/29 10:13:31;;;;;;;3.70;2.13;;;;;;;5.39;83.39;102533.88;5009076;28;20489;-67
2024/01/29 10:15:57;;;;;;;4.45;2.38;;;;;;;5.23;83.08;102511.06;5010755;28;20029;-66
2024/01/29 10:18:22;;;;;;;5.68;2.47;;;;;;;5.32;83.54;102534.94;5010138;28;20092;-67
2024/01/29 10:20:59;;;;;;;7.65;2.80;;;;;;;5.22;83.57;102528.09;5009391;28;20721;-67
2024/01/29 10:23:25;;;;;;;4.13;2.25;;;;;;;5.12;81.95;102525.44;5009630;28;20549;-66
2024/01/29 10:25:57;;;;;;;3.53;2.00;;;;;;;4.80;81.32;102516.56;5010184;28;20030;-67
2024/01/29 10:28:26;;;;;;;6.05;2.60;;;;;;;4.51;82.35;102470.34;5009638;28;20410;-66
2024/01/29 10:30:55;;;;;;;8.38;7.57;;;;;;;5.08;82.66;102511.44;5009743;28;20022;-67
2024/01/29 10:33:21;;;;;;;3.58;2.20;;;;;;;5.52;82.83;102518.84;5009971;28;20041;-66
2024/01/29 10:35:48;;;;;;;4.95;2.60;;;;;;;5.50;81.72;102503.31;5009766;28;20044;-66
2024/01/29 10:38:17;;;;;;;4.80;2.67;;;;;;;5.40;82.75;102454.59;5009508;28;20038;-66
2024/01/29 10:40:44;;;;;;;4.57;2.60;;;;;;;5.63;80.95;102514.66;5007378;28;20056;-66
2024/01/29 10:43:18;;;;;;;5.32;2.90;;;;;;;5.58;81.35;102506.59;5003835;28;20034;-67
2024/01/29 10:45:47;;;;;;;3.75;1.95;;;;;;;5.65;80.24;102506.34;5007602;28;20113;-68
2024/01/29 10:48:22;;;;;;;2.85;1.90;;;;;;;5.49;81.12;102501.50;5001102;28;20041;-68
2024/01/29 10:50:49;;;;;;;4.53;2.55;;;;;;;5.53;81.02;102481.31;5005431;28;20041;-69
2024/01/29 10:53:16;;;;;;;5.55;2.13;;;;;;;5.91;82.15;102496.66;4983057;28;20510;-67
2024/01/29 10:55:49;;;;;;;3.33;2.10;;;;;;;6.13;80.74;102486.63;5004332;28;20076;-68
2024/01/29 10:58:15;;;;;;;4.00;1.90;;;;;;;6.27;81.36;102493.00;5004858;28;20128;-71
2024/01/29 11:00:43;;;;;;;4.13;2.67;;;;;;;6.29;79.27;102479.53;5010265;28;20041;-70
2024/01/29 11:03:11;;;;;;;3.92;2.50;;;;;;;6.35;78.81;102485.94;5009334;28;20037;-66
2024/01/29 11:05:39;;;;;;;6.50;2.90;;;;;;;6.36;79.69;102485.19;5009550;28;20108;-65
2024/01/29 11:08:10;;;;;;;7.65;2.25;;;;;;;6.41;78.99;102478.78;5005119;28;20415;-67
2024/01/29 11:10:35;;;;;;;5.47;2.97;;;;;;;6.19;79.07;102484.59;5009477;28;20037;-64
2024/01/29 11:13:04;;;;;;;10.82;5.32;;;;;;;6.15;80.44;102464.59;5008645;28;20037;-66
2024/01/29 11:15:30;;;;;;;4.35;2.50;;;;;;;6.20;80.38;102465.00;5009565;28;20076;-67
2024/01/29 11:17:57;;;;;;;3.47;2.08;;;;;;;6.07;78.66;102468.13;5007145;28;20081;-64
2024/01/29 11:20:23;;;;;;;4.30;2.70;;;;;;;5.67;78.37;102407.47;4990690;28;20426;-66
2024/01/29 11:22:53;;;;;;;4.82;1.98;;;;;;;5.89;79.46;102473.41;5005937;28;20037;-66